createdAt,value
2022-12-09T00:01:33.703Z,98.53
2022-12-09T00:04:01.633Z,98.55
2022-12-09T00:06:30.987Z,98.78
2022-12-09T00:08:59.086Z,98.49
2022-12-09T00:11:27.816Z,98.40
2022-12-09T00:13:57.847Z,98.37
2022-12-09T00:16:26.716Z,98.42
2022-12-09T00:18:56.646Z,98.24
2022-12-09T00:21:33.188Z,98.15
2022-12-09T00:24:04.459Z,98.58
2022-12-09T00:26:33.573Z,98.54
2022-12-09T00:29:02.183Z,98.56
2022-12-09T00:31:33.356Z,98.99
2022-12-09T00:34:04.492Z,98.67
2022-12-09T00:36:33.373Z,99.10
2022-12-09T00:39:02.013Z,99.30
2022-12-09T00:41:31.426Z,99.36
2022-12-09T00:43:59.886Z,99.34
2022-12-09T00:46:28.258Z,99.30
2022-12-09T00:48:56.315Z,99.00
2022-12-09T00:51:25.254Z,99.19
2022-12-09T00:53:55.930Z,98.78
2022-12-09T00:56:26.426Z,99.06
2022-12-09T00:58:55.440Z,98.99
2022-12-09T01:01:24.488Z,99.30
2022-12-09T01:03:52.709Z,99.38
2022-12-09T01:06:23.841Z,99.37
2022-12-09T01:08:52.330Z,99.60
2022-12-09T01:11:25.419Z,99.48
2022-12-09T01:13:54.166Z,99.88
2022-12-09T01:16:26.709Z,99.75
2022-12-09T01:18:57.504Z,99.65
2022-12-09T01:21:29.598Z,99.52
2022-12-09T01:23:57.599Z,99.99
2022-12-09T01:26:27.283Z,99.99
2022-12-09T01:28:57.535Z,99.99
2022-12-09T01:31:26.643Z,99.98
2022-12-09T01:33:56.393Z,99.99
2022-12-09T01:36:28.051Z,99.99
2022-12-09T01:38:58.297Z,98.94
2022-12-09T01:41:28.738Z,98.95
2022-12-09T01:44:19.789Z,98.75
2022-12-09T01:46:48.397Z,98.56
2022-12-09T01:49:38.711Z,98.42
2022-12-09T01:52:14.153Z,98.35
2022-12-09T01:54:45.986Z,97.74
2022-12-09T01:57:15.956Z,97.56
2022-12-09T01:59:45.548Z,97.21
2022-12-09T02:02:17.748Z,97.52
2022-12-09T02:04:48.927Z,97.78
2022-12-09T02:07:19.792Z,97.47
2022-12-09T02:09:53.221Z,97.38
2022-12-09T02:12:33.727Z,97.36
2022-12-09T02:15:33.259Z,97.33
2022-12-09T02:18:17.983Z,97.15
2022-12-09T02:20:56.786Z,97.50
2022-12-09T02:23:51.033Z,97.50
2022-12-09T02:26:36.509Z,97.84
2022-12-09T02:29:31.197Z,98.01
2022-12-09T02:32:17.947Z,98.14
2022-12-09T02:35:05.866Z,98.28
2022-12-09T02:37:51.645Z,98.42
2022-12-09T02:40:29.148Z,98.61
2022-12-09T02:42:58.451Z,99.04
2022-12-09T02:45:30.637Z,99.27
2022-12-09T02:48:02.744Z,99.21
2022-12-09T02:50:36.167Z,99.65
2022-12-09T02:53:08.056Z,99.99
2022-12-09T02:55:37.596Z,99.99
2022-12-09T02:58:05.499Z,99.99
2022-12-09T03:00:39.509Z,99.99
2022-12-09T03:03:13.299Z,99.99
2022-12-09T03:05:49.555Z,99.99
2022-12-09T03:08:23.478Z,99.99
2022-12-09T03:11:06.338Z,99.99
2022-12-09T03:13:41.170Z,99.99
2022-12-09T03:16:20.945Z,99.99
2022-12-09T03:18:55.505Z,99.99
2022-12-09T03:21:26.438Z,99.99
2022-12-09T03:23:56.909Z,99.99
2022-12-09T03:26:28.541Z,99.99
2022-12-09T03:29:09.258Z,99.99
2022-12-09T03:31:39.627Z,99.99
2022-12-09T03:34:10.961Z,99.99
2022-12-09T03:36:41.501Z,99.99
2022-12-09T03:39:16.384Z,99.99
2022-12-09T03:41:53.571Z,99.99
2022-12-09T03:44:51.117Z,99.99
2022-12-09T03:47:19.085Z,99.99
2022-12-09T03:49:47.652Z,99.99
2022-12-09T03:52:51.072Z,99.99
2022-12-09T03:55:44.440Z,99.99
2022-12-09T03:58:14.395Z,99.99
2022-12-09T04:00:42.922Z,99.99
2022-12-09T04:03:14.799Z,99.99
2022-12-09T04:05:43.289Z,99.99
2022-12-09T04:08:11.606Z,99.99
2022-12-09T04:10:39.581Z,99.99
2022-12-09T04:13:07.431Z,99.99
2022-12-09T04:15:35.339Z,99.99
2022-12-09T04:18:03.263Z,99.99
2022-12-09T04:20:31.472Z,99.99
2022-12-09T04:22:59.571Z,99.99
2022-12-09T04:25:27.544Z,99.99
2022-12-09T04:27:55.787Z,99.99
2022-12-09T04:30:23.654Z,99.99
2022-12-09T04:32:51.786Z,99.99
2022-12-09T04:35:19.867Z,99.99
2022-12-09T04:37:48.605Z,99.99
2022-12-09T04:40:22.823Z,99.99
2022-12-09T04:42:51.988Z,99.99
2022-12-09T04:45:20.297Z,99.99
2022-12-09T04:47:48.586Z,99.99
2022-12-09T04:50:17.259Z,99.99
2022-12-09T04:52:45.536Z,99.99
2022-12-09T04:55:14.258Z,99.99
2022-12-09T04:57:43.044Z,99.99
2022-12-09T05:00:12.341Z,99.99
2022-12-09T05:02:40.943Z,99.99
2022-12-09T05:05:09.807Z,99.99
2022-12-09T05:07:38.027Z,99.99
2022-12-09T05:10:07.127Z,99.99
2022-12-09T05:12:36.064Z,99.99
2022-12-09T05:15:04.702Z,99.99
2022-12-09T05:17:32.614Z,99.99
2022-12-09T05:20:00.981Z,99.99
2022-12-09T05:22:29.293Z,99.99
2022-12-09T05:24:57.672Z,99.99
2022-12-09T05:27:25.569Z,99.99
2022-12-09T05:29:53.766Z,99.99
2022-12-09T05:32:21.677Z,99.99
2022-12-09T05:34:49.666Z,99.99
2022-12-09T05:37:17.767Z,99.99
2022-12-09T05:39:45.910Z,99.99
2022-12-09T05:42:13.865Z,99.99
2022-12-09T05:44:41.806Z,99.99
2022-12-09T05:47:09.995Z,99.99
2022-12-09T05:49:39.049Z,99.99
2022-12-09T05:52:07.374Z,99.99
2022-12-09T05:54:35.380Z,99.99
2022-12-09T05:57:04.467Z,99.99
2022-12-09T05:59:32.809Z,99.99
2022-12-09T06:02:03.747Z,99.99
2022-12-09T06:04:36.797Z,99.99
2022-12-09T06:07:05.236Z,99.99
2022-12-09T06:09:33.893Z,99.99
2022-12-09T06:12:03.021Z,99.99
2022-12-09T06:14:31.401Z,99.99
2022-12-09T06:16:59.585Z,99.99
2022-12-09T06:19:27.731Z,99.99
2022-12-09T06:21:55.979Z,99.99
2022-12-09T06:24:24.034Z,99.99
2022-12-09T06:26:54.688Z,99.99
2022-12-09T06:29:23.066Z,99.99
2022-12-09T06:31:51.029Z,99.99
2022-12-09T06:34:19.545Z,99.99
2022-12-09T06:36:47.562Z,99.99
2022-12-09T06:39:15.991Z,99.99
2022-12-09T06:41:44.450Z,99.99
2022-12-09T06:44:17.193Z,99.99
2022-12-09T06:46:51.261Z,99.99
2022-12-09T06:49:19.557Z,99.99
2022-12-09T06:51:48.012Z,99.99
2022-12-09T06:54:16.637Z,99.99
2022-12-09T06:56:44.789Z,99.99
2022-12-09T06:59:13.143Z,99.99
2022-12-09T07:01:41.699Z,99.99
2022-12-09T07:04:13.653Z,99.99
2022-12-09T07:06:44.336Z,99.99
2022-12-09T07:09:21.209Z,99.99
2022-12-09T07:11:50.275Z,99.99
2022-12-09T07:14:22.102Z,99.99
2022-12-09T07:16:50.504Z,99.99
2022-12-09T07:19:21.339Z,99.99
2022-12-09T07:21:50.884Z,99.99
2022-12-09T07:24:20.300Z,99.99
2022-12-09T07:26:49.392Z,99.99
2022-12-09T07:29:18.750Z,99.99
2022-12-09T07:31:48.721Z,99.99
2022-12-09T07:34:17.876Z,99.99
2022-12-09T07:36:47.355Z,99.99
2022-12-09T07:39:18.560Z,99.99
2022-12-09T07:41:48.407Z,99.99
2022-12-09T07:44:16.768Z,99.99
2022-12-09T07:46:45.004Z,99.99
2022-12-09T07:49:14.327Z,99.99
2022-12-09T07:51:43.298Z,99.99
2022-12-09T07:54:17.067Z,99.99
2022-12-09T07:56:45.677Z,99.99
2022-12-09T07:59:15.344Z,99.99
2022-12-09T08:01:45.375Z,99.99
2022-12-09T08:04:13.869Z,99.99
2022-12-09T08:06:42.739Z,99.99
2022-12-09T08:09:13.582Z,99.99
2022-12-09T08:11:42.515Z,99.99
2022-12-09T08:14:13.320Z,99.99
2022-12-09T08:16:43.442Z,99.99
2022-12-09T08:19:13.456Z,99.99
2022-12-09T08:21:42.393Z,99.99
2022-12-09T08:24:12.867Z,99.99
2022-12-09T08:26:42.044Z,99.99
2022-12-09T08:29:13.040Z,99.99
2022-12-09T08:31:43.656Z,99.99
2022-12-09T08:34:13.150Z,99.99
2022-12-09T08:36:42.438Z,99.99
2022-12-09T08:39:12.409Z,99.99
2022-12-09T08:41:41.173Z,99.99
2022-12-09T08:44:17.440Z,99.99
2022-12-09T08:46:49.266Z,99.99
2022-12-09T08:49:20.025Z,99.99
2022-12-09T08:51:50.309Z,99.99
2022-12-09T08:54:19.691Z,99.99
2022-12-09T08:56:50.066Z,99.99
2022-12-09T08:59:18.812Z,99.99
2022-12-09T09:01:48.474Z,99.99
2022-12-09T09:04:22.831Z,99.99
2022-12-09T09:06:52.666Z,99.99
2022-12-09T09:09:22.556Z,99.99
2022-12-09T09:11:51.292Z,99.99
2022-12-09T09:14:20.061Z,99.99
2022-12-09T09:16:48.429Z,99.99
2022-12-09T09:19:20.630Z,99.99
2022-12-09T09:21:49.872Z,99.99
2022-12-09T09:24:20.838Z,99.99
2022-12-09T09:26:51.719Z,99.99
2022-12-09T09:29:22.141Z,99.99
2022-12-09T09:31:56.207Z,99.99
2022-12-09T09:34:27.034Z,99.99
2022-12-09T09:36:56.670Z,99.99
2022-12-09T09:39:25.653Z,99.99
2022-12-09T09:42:08.722Z,99.99
2022-12-09T09:44:43.388Z,99.99
2022-12-09T09:47:40.081Z,99.99
2022-12-09T09:50:41.880Z,99.99
2022-12-09T09:53:27.531Z,99.99
2022-12-09T09:56:07.202Z,99.99
2022-12-09T09:59:12.105Z,99.99
2022-12-09T10:01:40.846Z,99.99
2022-12-09T10:04:37.838Z,99.99
2022-12-09T10:07:42.229Z,99.98
2022-12-09T10:10:34.726Z,99.41
2022-12-09T10:13:44.175Z,99.54
2022-12-09T10:16:31.317Z,99.45
2022-12-09T10:19:08.909Z,99.31
2022-12-09T10:21:41.100Z,98.96
2022-12-09T10:24:24.073Z,98.77
2022-12-09T10:27:38.344Z,98.48
2022-12-09T10:30:16.520Z,98.06
2022-12-09T10:32:45.860Z,98.02
2022-12-09T10:35:20.662Z,98.09
2022-12-09T10:37:49.984Z,98.21
2022-12-09T10:40:23.931Z,97.88
2022-12-09T10:43:14.534Z,97.20
2022-12-09T10:46:17.434Z,96.70
2022-12-09T10:48:56.133Z,96.37
2022-12-09T10:51:34.724Z,96.07
2022-12-09T10:54:41.700Z,94.96
2022-12-09T10:57:13.547Z,94.93
2022-12-09T10:59:58.704Z,94.81
2022-12-09T11:02:28.735Z,94.84
2022-12-09T11:05:17.247Z,93.99
2022-12-09T11:07:50.132Z,93.83
2022-12-09T11:10:22.336Z,93.35
2022-12-09T11:12:53.376Z,92.91
2022-12-09T11:15:54.419Z,92.19
2022-12-09T11:18:32.958Z,92.63
2022-12-09T11:21:04.900Z,91.88
2022-12-09T11:23:36.676Z,92.59
2022-12-09T11:26:07.721Z,92.57
2022-12-09T11:28:39.254Z,92.84
2022-12-09T11:34:18.138Z,92.41
2022-12-09T11:36:49.993Z,92.59
2022-12-09T11:39:27.006Z,91.97
2022-12-09T11:42:17.673Z,92.64
2022-12-09T11:45:06.662Z,92.56
2022-12-09T11:50:31.725Z,92.41
2022-12-09T11:53:11.841Z,92.35
2022-12-09T11:55:47.213Z,93.04
2022-12-09T11:58:20.308Z,91.95
2022-12-09T12:01:03.860Z,92.34
2022-12-09T12:03:48.682Z,92.57
2022-12-09T12:06:23.828Z,92.42
2022-12-09T12:08:54.702Z,92.67
2022-12-09T12:11:40.673Z,92.28
2022-12-09T12:14:17.525Z,92.23
2022-12-09T12:17:16.489Z,92.53
2022-12-09T12:19:49.769Z,92.20
2022-12-09T12:22:43.732Z,92.77
2022-12-09T12:25:21.177Z,93.22
2022-12-09T12:28:18.670Z,93.05
2022-12-09T12:31:06.720Z,93.33
2022-12-09T12:34:16.238Z,93.32
2022-12-09T12:36:59.559Z,93.55
2022-12-09T12:40:06.016Z,93.30
2022-12-09T12:42:41.352Z,93.63
2022-12-09T12:45:42.619Z,93.26
2022-12-09T12:48:39.195Z,93.14
2022-12-09T12:51:43.662Z,92.05
2022-12-09T12:54:44.019Z,92.60
2022-12-09T12:57:29.866Z,91.76
2022-12-09T13:00:08.269Z,91.83
2022-12-09T13:02:59.976Z,91.20
2022-12-09T13:05:37.316Z,91.34
2022-12-09T13:08:28.186Z,91.52
2022-12-09T13:10:58.299Z,91.16
2022-12-09T13:13:32.333Z,90.84
2022-12-09T13:16:08.900Z,90.75
2022-12-09T13:18:39.902Z,90.30
2022-12-09T13:21:09.915Z,90.34
2022-12-09T13:24:03.680Z,90.13
2022-12-09T13:26:55.647Z,90.25
2022-12-09T13:29:40.098Z,90.28
2022-12-09T13:32:32.394Z,90.78
2022-12-09T13:35:20.109Z,90.60
2022-12-09T13:37:50.247Z,90.65
2022-12-09T13:40:21.701Z,90.41
2022-12-09T13:43:04.090Z,90.15
2022-12-09T13:45:50.671Z,90.35
2022-12-09T13:48:19.191Z,89.86
2022-12-09T13:50:51.680Z,89.98
2022-12-09T13:53:20.059Z,89.51
2022-12-09T13:56:03.593Z,90.80
2022-12-09T13:58:53.282Z,90.11
2022-12-09T14:01:44.481Z,90.54
2022-12-09T14:04:16.839Z,90.10
2022-12-09T14:06:45.759Z,90.54
2022-12-09T14:09:40.255Z,89.42
2022-12-09T14:12:11.885Z,89.25
2022-12-09T14:14:51.287Z,89.66
2022-12-09T14:17:30.812Z,90.33
2022-12-09T14:20:20.301Z,89.80
2022-12-09T14:23:09.885Z,90.21
2022-12-09T14:25:38.404Z,89.46
2022-12-09T14:28:12.923Z,89.38
2022-12-09T14:31:04.758Z,90.20
2022-12-09T14:33:43.384Z,89.79
2022-12-09T14:36:14.333Z,88.81
2022-12-09T14:42:01.530Z,89.98
2022-12-09T14:45:03.437Z,89.77
2022-12-09T14:47:39.485Z,89.97
2022-12-09T14:50:20.228Z,90.24
2022-12-09T14:53:04.185Z,90.50
2022-12-09T14:55:37.838Z,90.37
2022-12-09T14:58:21.012Z,89.81
2022-12-09T15:01:02.757Z,88.80
2022-12-09T15:03:35.522Z,89.19
2022-12-09T15:06:18.834Z,89.59
2022-12-09T15:08:50.933Z,89.47
2022-12-09T15:11:22.223Z,89.61
2022-12-09T15:13:52.545Z,89.99
2022-12-09T15:16:24.097Z,89.58
2022-12-09T15:18:53.594Z,89.25
2022-12-09T15:21:32.422Z,89.79
2022-12-09T15:24:05.697Z,89.73
2022-12-09T15:26:35.197Z,89.71
2022-12-09T15:29:08.945Z,89.42
2022-12-09T15:31:49.615Z,89.71
2022-12-09T15:34:26.324Z,90.01
2022-12-09T15:37:00.720Z,90.27
2022-12-09T15:39:51.045Z,89.94
2022-12-09T15:42:26.081Z,90.12
2022-12-09T15:44:57.288Z,90.42
2022-12-09T15:47:28.224Z,90.13
2022-12-09T15:50:15.738Z,90.09
2022-12-09T15:52:53.723Z,89.96
2022-12-09T15:55:46.004Z,90.68
2022-12-09T15:58:16.985Z,90.82
2022-12-09T16:00:48.852Z,90.84
2022-12-09T16:03:28.411Z,91.22
2022-12-09T16:05:59.948Z,91.34
2022-12-09T16:08:40.640Z,91.80
2022-12-09T16:11:09.521Z,91.83
2022-12-09T16:13:56.598Z,91.91
2022-12-09T16:16:40.858Z,92.06
2022-12-09T16:19:33.556Z,92.01
2022-12-09T16:22:08.662Z,91.60
2022-12-09T16:25:13.128Z,91.68
2022-12-09T16:27:36.949Z,91.45
2022-12-09T16:30:14.728Z,91.50
2022-12-09T16:32:52.686Z,91.75
2022-12-09T16:35:27.256Z,92.21
2022-12-09T16:37:58.067Z,92.64
2022-12-09T16:40:25.947Z,92.98
2022-12-09T16:43:16.681Z,93.17
2022-12-09T16:46:17.892Z,93.42
2022-12-09T16:48:49.267Z,93.68
2022-12-09T16:51:22.545Z,93.89
2022-12-09T16:53:52.439Z,93.81
2022-12-09T16:56:28.883Z,93.99
2022-12-09T16:58:59.156Z,94.04
2022-12-09T17:01:41.353Z,94.05
2022-12-09T17:04:18.847Z,94.37
2022-12-09T17:06:46.914Z,94.56
2022-12-09T17:09:14.894Z,94.56
2022-12-09T17:11:48.570Z,94.74
2022-12-09T17:14:18.021Z,94.87
2022-12-09T17:16:50.781Z,94.85
2022-12-09T17:19:22.728Z,94.91
2022-12-09T17:21:52.115Z,94.99
2022-12-09T17:24:20.906Z,94.99
2022-12-09T17:26:48.799Z,95.10
2022-12-09T17:29:16.691Z,95.25
2022-12-09T17:31:44.736Z,95.64
2022-12-09T17:34:12.748Z,95.79
2022-12-09T17:36:40.617Z,95.97
2022-12-09T17:39:09.486Z,96.08
2022-12-09T17:41:37.549Z,96.45
2022-12-09T17:44:05.806Z,96.55
2022-12-09T17:46:34.499Z,96.97
2022-12-09T17:49:02.959Z,96.91
2022-12-09T17:51:35.978Z,97.21
2022-12-09T17:54:04.853Z,97.31
2022-12-09T17:56:32.841Z,97.43
2022-12-09T17:59:10.224Z,97.56
2022-12-09T18:01:41.046Z,98.12
2022-12-09T18:04:10.623Z,98.51
2022-12-09T18:06:43.104Z,98.56
2022-12-09T18:09:13.813Z,98.82
2022-12-09T18:11:42.566Z,98.39
2022-12-09T18:14:10.684Z,98.74
2022-12-09T18:16:38.861Z,98.52
2022-12-09T18:19:10.577Z,98.80
2022-12-09T18:21:38.530Z,99.30
2022-12-09T18:24:06.821Z,99.36
2022-12-09T18:26:41.618Z,99.15
2022-12-09T18:29:11.205Z,99.40
2022-12-09T18:31:40.237Z,99.42
2022-12-09T18:34:08.521Z,99.37
2022-12-09T18:36:36.593Z,99.32
2022-12-09T18:39:05.083Z,99.51
2022-12-09T18:41:33.589Z,99.71
2022-12-09T18:44:04.852Z,99.51
2022-12-09T18:46:36.532Z,99.56
2022-12-09T18:49:04.880Z,99.57
2022-12-09T18:51:33.205Z,99.73
2022-12-09T18:54:02.551Z,99.99
2022-12-09T18:56:30.663Z,99.99
2022-12-09T18:59:08.400Z,99.91
2022-12-09T19:01:41.084Z,99.99
2022-12-09T19:04:21.836Z,99.90
2022-12-09T19:06:51.628Z,99.99
2022-12-09T19:09:23.440Z,99.99
2022-12-09T19:11:52.602Z,99.99
2022-12-09T19:14:22.376Z,99.99
2022-12-09T19:16:51.561Z,99.99
2022-12-09T19:19:23.347Z,99.99
2022-12-09T19:21:53.015Z,99.99
2022-12-09T19:24:31.762Z,99.99
2022-12-09T19:27:07.282Z,99.99
2022-12-09T19:29:36.640Z,99.99
2022-12-09T19:32:36.544Z,99.99
2022-12-09T19:35:02.250Z,99.99
2022-12-09T19:37:32.675Z,99.99
2022-12-09T19:40:07.770Z,99.99
2022-12-09T19:42:40.109Z,99.99
2022-12-09T19:45:14.192Z,99.99
2022-12-09T19:47:48.627Z,99.99
2022-12-09T19:50:17.491Z,99.99
2022-12-09T19:52:47.105Z,99.99
2022-12-09T19:55:17.513Z,99.99
2022-12-09T19:57:46.091Z,99.99
2022-12-09T20:00:17.441Z,99.99
2022-12-09T20:02:45.890Z,99.99
2022-12-09T20:05:14.639Z,99.99
2022-12-09T20:07:43.155Z,99.99
2022-12-09T20:10:11.945Z,99.99
2022-12-09T20:12:41.749Z,99.99
2022-12-09T20:15:10.982Z,99.99
2022-12-09T20:17:39.537Z,99.99
2022-12-09T20:20:09.537Z,99.99
2022-12-09T20:22:50.008Z,99.99
2022-12-09T20:25:19.198Z,99.99
2022-12-09T20:27:51.067Z,99.99
2022-12-09T20:30:22.525Z,99.99
2022-12-09T20:32:52.106Z,99.99
2022-12-09T20:35:22.344Z,99.99
2022-12-09T20:37:50.967Z,99.99
2022-12-09T20:40:20.327Z,99.99
2022-12-09T20:42:52.088Z,99.99
2022-12-09T20:45:21.114Z,99.99
2022-12-09T20:47:49.706Z,99.99
2022-12-09T20:50:20.827Z,99.99
2022-12-09T20:52:55.462Z,99.99
2022-12-09T20:55:26.866Z,99.99
2022-12-09T20:57:55.278Z,99.99
2022-12-09T21:00:23.814Z,99.99
2022-12-09T21:02:53.004Z,99.99
2022-12-09T21:05:21.343Z,99.99
2022-12-09T21:07:49.752Z,99.99
2022-12-09T21:10:18.452Z,99.99
2022-12-09T21:12:46.853Z,99.99
2022-12-09T21:15:15.274Z,99.99
2022-12-09T21:17:46.819Z,99.99
2022-12-09T21:20:15.610Z,99.99
2022-12-09T21:22:44.110Z,99.99
2022-12-09T21:25:13.902Z,99.99
2022-12-09T21:27:45.541Z,99.99
2022-12-09T21:30:17.225Z,99.99
2022-12-09T21:32:45.719Z,99.99
2022-12-09T21:35:13.971Z,99.99
2022-12-09T21:37:42.271Z,99.99
2022-12-09T21:40:11.330Z,99.99
2022-12-09T21:42:39.799Z,99.99
2022-12-09T21:45:12.276Z,99.99
2022-12-09T21:47:46.548Z,99.99
2022-12-09T21:50:14.778Z,99.99
2022-12-09T21:52:45.133Z,99.99
2022-12-09T21:55:13.284Z,99.99
2022-12-09T21:57:41.757Z,99.99
2022-12-09T22:00:10.667Z,99.99
2022-12-09T22:02:39.100Z,99.99
2022-12-09T22:05:08.248Z,99.99
2022-12-09T22:07:36.617Z,99.99
2022-12-09T22:10:05.273Z,99.99
2022-12-09T22:12:38.191Z,99.99
2022-12-09T22:15:07.423Z,99.99
2022-12-09T22:17:37.691Z,99.99
2022-12-09T22:20:48.891Z,99.99
2022-12-09T22:22:56.166Z,99.99
2022-12-09T22:25:24.725Z,99.99
2022-12-09T22:27:53.206Z,99.99
2022-12-09T22:30:21.809Z,99.99
2022-12-09T22:32:51.139Z,99.99
2022-12-09T22:35:19.495Z,99.99
2022-12-09T22:37:48.764Z,99.99
2022-12-09T22:40:17.180Z,99.99
2022-12-09T22:42:45.410Z,99.99
2022-12-09T22:45:13.733Z,99.99
2022-12-09T22:47:42.211Z,99.99
2022-12-09T22:50:11.645Z,99.99
2022-12-09T22:52:41.155Z,99.99
2022-12-09T22:55:09.877Z,99.99
2022-12-09T22:57:38.694Z,99.99
2022-12-09T23:00:11.615Z,99.99
2022-12-09T23:02:41.010Z,99.99
2022-12-09T23:05:09.906Z,99.99
2022-12-09T23:07:44.493Z,99.99
2022-12-09T23:10:13.249Z,99.99
2022-12-09T23:12:41.626Z,99.99
2022-12-09T23:15:09.938Z,99.99
2022-12-09T23:17:37.912Z,99.99
2022-12-09T23:20:07.054Z,99.99
2022-12-09T23:22:35.345Z,99.99
2022-12-09T23:25:03.517Z,99.99
2022-12-09T23:27:31.422Z,99.99
2022-12-09T23:29:59.342Z,99.99
2022-12-09T23:32:27.476Z,99.99
2022-12-09T23:34:55.353Z,99.99
2022-12-09T23:37:23.446Z,99.99
2022-12-09T23:39:51.368Z,99.99
2022-12-09T23:42:20.735Z,99.99
2022-12-09T23:44:48.940Z,99.99
2022-12-09T23:47:16.922Z,99.99
2022-12-09T23:49:44.804Z,99.89
2022-12-09T23:52:12.729Z,99.91
2022-12-09T23:54:40.705Z,99.99
2022-12-09T23:57:08.540Z,99.99
2022-12-09T23:59:36.519Z,99.99
